Time;durP1;ratioP1;P1;durP2;ratioP2;P2;SDS_P1;SDS_P2;PMS_P1;PMS_P2;Temp;Humidity;BMP_temperature;BMP_pressure;BME280_temperature;BME280_humidity;BME280_pressure;Samples;Min_cycle;Max_cycle;Signal;HPM_P1;HPM_P2
2022/06/13 00:01:20;;;;;;;5.87;5.37;;;;;;;20.36;65.61;99480.38;1618624;88;21083;-75
2022/06/13 00:03:48;;;;;;;7.42;5.67;;;;;;;20.31;65.62;99469.60;1594420;88;21323;-74
2022/06/13 00:06:14;;;;;;;5.70;5.20;;;;;;;20.25;65.75;99478.23;1623701;86;20994;-75
2022/06/13 00:08:41;;;;;;;5.58;5.08;;;;;;;20.17;65.98;99473.56;1595286;88;21027;-75
2022/06/13 00:11:13;;;;;;;6.25;5.75;;;;;;;20.10;66.21;99468.55;1588062;88;21101;-74
2022/06/13 00:13:45;;;;;;;7.42;6.72;;;;;;;20.03;66.43;99473.14;1619188;88;21134;-74
2022/06/13 00:16:11;;;;;;;10.53;6.65;;;;;;;19.96;66.67;99477.43;1618473;88;21234;-74
2022/06/13 00:18:38;;;;;;;6.87;6.28;;;;;;;19.88;67.02;99474.94;1606291;87;21051;-75
2022/06/13 00:21:05;;;;;;;6.17;5.67;;;;;;;19.81;67.29;99472.40;1594023;90;21095;-74
2022/06/13 00:23:36;;;;;;;7.75;7.15;;;;;;;19.75;67.65;99466.86;1596478;88;21207;-74
2022/06/13 00:26:03;;;;;;;8.05;6.55;;;;;;;19.70;67.85;99469.17;1615925;87;21017;-73
2022/06/13 00:28:31;;;;;;;7.67;6.90;;;;;;;19.64;68.12;99475.88;1612803;86;21282;-72
2022/06/13 00:30:58;;;;;;;6.30;5.80;;;;;;;19.59;68.30;99461.83;1618841;87;21032;-73
2022/06/13 00:33:25;;;;;;;6.67;6.05;;;;;;;19.54;68.57;99459.79;1619536;87;21143;-73
2022/06/13 00:35:52;;;;;;;7.00;6.30;;;;;;;19.50;68.78;99462.91;1620023;87;21033;-72
2022/06/13 00:38:20;;;;;;;6.60;6.10;;;;;;;19.47;68.95;99463.55;1603428;88;21047;-72
2022/06/13 00:40:48;;;;;;;6.80;6.22;;;;;;;19.44;69.09;99461.42;1594074;90;21157;-72
2022/06/13 00:43:15;;;;;;;6.37;5.90;;;;;;;19.45;69.15;99460.31;1619263;86;21151;-72
2022/06/13 00:45:42;;;;;;;6.28;5.78;;;;;;;19.43;69.25;99463.31;1633056;87;20927;-73
2022/06/13 00:48:13;;;;;;;5.85;5.45;;;;;;;19.45;69.32;99470.67;1625238;88;21019;-72
2022/06/13 00:50:55;;;;;;;8.33;6.15;;;;;;;19.44;69.46;99466.33;1620386;88;21055;-72
2022/06/13 00:53:26;;;;;;;6.25;5.75;;;;;;;19.43;69.77;99474.22;1647523;86;21454;-73
2022/06/13 00:56:01;;;;;;;5.65;5.25;;;;;;;19.43;69.89;99475.59;1640629;85;20985;-73
2022/06/13 00:58:29;;;;;;;;;;;;;;;19.44;70.04;99473.14;1615353;87;21031;-73
2022/06/13 01:00:57;;;;;;;5.83;5.33;;;;;;;19.41;70.58;99472.38;1621119;87;20159;-73
2022/06/13 01:03:26;;;;;;;5.33;4.90;;;;;;;19.39;70.61;99462.33;1637507;86;21062;-74
2022/06/13 01:05:53;;;;;;;5.60;4.95;;;;;;;19.38;70.85;99460.72;1657207;86;21121;-73
2022/06/13 01:08:21;;;;;;;6.97;5.22;;;;;;;19.37;71.37;99465.95;1635971;87;21166;-73
2022/06/13 01:14:01;;;;;;;6.40;5.17;;;;;;;19.38;71.57;99468.91;1635630;87;20971;-72
2022/06/13 01:17:12;;;;;;;5.75;5.25;;;;;;;19.40;71.62;99461.22;1614333;87;21044;-72
2022/06/13 01:20:03;;;;;;;5.72;5.30;;;;;;;19.41;71.84;99462.84;1635976;86;21246;-73
2022/06/13 01:22:55;;;;;;;7.87;7.15;;;;;;;19.37;72.05;99463.22;1612358;87;21547;-73
2022/06/13 01:25:41;;;;;;;5.85;5.35;;;;;;;19.32;72.45;99463.36;1635396;87;21043;-72
2022/06/13 01:28:38;;;;;;;6.25;5.65;;;;;;;19.32;72.43;99460.63;1603942;87;21559;-72
2022/06/13 01:31:24;;;;;;;8.35;6.53;;;;;;;19.31;72.59;99467.75;1642192;86;21015;-74
2022/06/13 01:34:33;;;;;;;6.47;5.97;;;;;;;19.31;72.71;99470.48;1610544;87;21175;-73
2022/06/13 01:37:24;;;;;;;8.28;6.00;;;;;;;19.28;72.83;99470.53;1626713;87;21109;-72
2022/06/13 01:40:17;;;;;;;5.08;4.67;;;;;;;19.26;72.86;99465.96;1628074;87;21063;-73
2022/06/13 01:43:05;;;;;;;6.55;5.20;;;;;;;19.26;72.95;99474.14;1616478;88;21115;-72
2022/06/13 01:46:12;;;;;;;6.47;6.03;;;;;;;19.20;73.31;99476.75;1638088;87;21019;-74
2022/06/13 01:48:51;;;;;;;9.13;6.12;;;;;;;19.18;73.51;99473.55;1639842;87;21281;-73
2022/06/13 01:51:25;;;;;;;6.60;5.35;;;;;;;19.14;73.99;99474.70;1619375;87;21059;-73
2022/06/13 01:54:20;;;;;;;5.87;5.37;;;;;;;19.11;74.35;99479.42;1641596;87;21093;-73
2022/06/13 01:56:55;;;;;;;7.30;5.67;;;;;;;19.10;74.57;99473.72;1641454;87;21020;-72
2022/06/13 01:59:36;;;;;;;8.88;6.37;;;;;;;19.09;74.66;99474.83;1641439;87;21163;-73
2022/06/13 02:02:15;;;;;;;6.00;5.50;;;;;;;19.07;74.97;99480.36;1630675;86;21238;-73
2022/06/13 02:04:49;;;;;;;5.47;5.08;;;;;;;18.99;75.37;99473.72;1627076;87;21041;-73
2022/06/13 02:07:22;;;;;;;7.05;5.50;;;;;;;18.95;75.99;99467.83;1655628;86;21000;-72
2022/06/13 02:10:00;;;;;;;6.92;6.33;;;;;;;18.93;76.00;99473.62;1619455;87;21122;-73
2022/06/13 02:12:31;;;;;;;6.83;5.35;;;;;;;18.95;76.05;99465.92;1641651;87;21027;-72
2022/06/13 02:15:05;;;;;;;6.75;5.00;;;;;;;18.95;76.12;99471.92;1641555;87;21344;-72
2022/06/13 02:17:36;;;;;;;6.35;5.80;;;;;;;18.95;76.18;99474.65;1622703;86;21026;-72
2022/06/13 02:20:20;;;;;;;6.75;5.58;;;;;;;18.89;76.54;99475.36;1630393;86;21080;-71
2022/06/13 02:23:02;;;;;;;5.70;5.17;;;;;;;18.88;76.72;99466.92;1616556;87;21588;-73
2022/06/13 02:25:46;;;;;;;6.47;4.87;;;;;;;18.88;76.70;99473.73;1641378;87;21070;-74
2022/06/13 02:28:28;;;;;;;6.22;5.55;;;;;;;18.94;76.47;99467.61;1641620;87;21015;-74
2022/06/13 02:31:15;;;;;;;6.85;5.53;;;;;;;19.01;76.16;99463.88;1640374;86;21076;-72
2022/06/13 02:33:49;;;;;;;6.90;6.15;;;;;;;18.99;76.25;99468.27;1643134;86;21047;-74
2022/06/13 02:36:22;;;;;;;5.58;5.17;;;;;;;18.99;76.30;99466.13;1615901;87;20999;-73
2022/06/13 02:38:56;;;;;;;5.60;5.05;;;;;;;18.99;76.23;99470.98;1642763;86;21056;-73
2022/06/13 02:41:25;;;;;;;4.60;4.30;;;;;;;19.13;75.67;99465.49;1648279;86;21085;-74
2022/06/13 02:44:00;;;;;;;5.28;4.78;;;;;;;19.23;75.18;99465.23;1667525;86;20995;-73
2022/06/13 02:46:46;;;;;;;5.70;5.30;;;;;;;19.27;74.95;99465.41;1641315;86;21006;-74
2022/06/13 02:49:24;;;;;;;6.42;5.53;;;;;;;19.33;74.78;99470.39;1666643;86;21136;-73
2022/06/13 02:52:20;;;;;;;5.45;5.05;;;;;;;19.40;74.44;99463.14;1638990;86;21095;-73
2022/06/13 02:54:52;;;;;;;5.08;4.67;;;;;;;19.49;74.24;99464.83;1628321;87;21749;-73
2022/06/13 02:57:48;;;;;;;7.42;5.03;;;;;;;19.56;73.91;99465.19;1610895;89;21050;-74
2022/06/13 03:00:36;;;;;;;7.42;4.58;;;;;;;19.68;73.61;99471.41;1612375;87;21026;-73
2022/06/13 03:03:33;;;;;;;5.03;4.53;;;;;;;19.76;73.21;99465.75;1643104;86;21039;-75
2022/06/13 03:06:21;;;;;;;9.93;5.60;;;;;;;19.87;72.92;99471.14;1652827;86;20995;-74
2022/06/13 03:08:56;;;;;;;6.58;5.97;;;;;;;19.75;73.47;99475.86;1612013;87;21292;-74
2022/06/13 03:11:59;;;;;;;6.50;5.90;;;;;;;19.51;74.47;99476.80;1602563;86;21602;-74
2022/06/13 03:14:46;;;;;;;7.17;5.45;;;;;;;19.44;74.83;99479.16;1639633;87;21067;-73
2022/06/13 03:17:39;;;;;;;6.30;5.83;;;;;;;19.52;74.57;99486.56;1663494;86;21099;-74
2022/06/13 03:20:16;;;;;;;5.90;5.42;;;;;;;19.57;74.56;99483.70;1637869;87;21200;-73
2022/06/13 03:23:10;;;;;;;5.78;5.17;;;;;;;19.67;74.53;99483.98;1597727;87;21092;-73
2022/06/13 03:26:00;;;;;;;5.60;5.10;;;;;;;19.79;74.28;99485.58;1635110;86;21019;-72
2022/06/13 03:28:32;;;;;;;5.72;5.25;;;;;;;19.88;73.98;99482.31;1636619;87;20971;-73
2022/06/13 03:31:17;;;;;;;8.55;6.40;;;;;;;20.00;73.63;99481.13;1640754;86;21047;-73
2022/06/13 03:33:47;;;;;;;5.90;5.40;;;;;;;20.08;73.32;99485.03;1648252;86;21055;-71
2022/06/13 03:36:39;;;;;;;6.10;5.70;;;;;;;20.11;73.11;99490.65;1643951;86;21093;-71
2022/06/13 03:39:14;;;;;;;7.87;6.42;;;;;;;20.20;72.93;99487.94;1656779;86;21023;-73
2022/06/13 03:42:08;;;;;;;6.03;5.53;;;;;;;20.13;72.81;99488.98;1655333;86;21179;-72
2022/06/13 03:44:44;;;;;;;5.60;5.10;;;;;;;19.92;73.76;99488.19;1663427;86;21054;-71
2022/06/13 03:47:23;;;;;;;6.53;5.15;;;;;;;19.93;73.34;99495.83;1645575;85;21529;-72
2022/06/13 03:50:03;;;;;;;6.35;4.97;;;;;;;20.02;72.99;99493.36;1625417;87;21250;-72
2022/06/13 03:52:31;;;;;;;5.25;4.83;;;;;;;20.06;72.90;99496.81;1634877;86;20979;-71
2022/06/13 03:55:07;;;;;;;7.55;5.08;;;;;;;20.07;73.05;99499.23;1607641;89;21085;-72
2022/06/13 03:57:51;;;;;;;5.80;5.25;;;;;;;20.14;72.92;99500.15;1607561;89;21059;-72
2022/06/13 04:00:27;;;;;;;5.87;5.37;;;;;;;20.21;72.77;99495.82;1607699;89;21028;-72
2022/06/13 04:02:54;;;;;;;6.03;5.17;;;;;;;20.35;72.48;99497.08;1631459;87;21245;-75
2022/06/13 04:05:57;;;;;;;7.70;5.20;;;;;;;20.51;71.96;99495.50;1638799;87;21030;-75
2022/06/13 04:08:24;;;;;;;7.12;5.22;;;;;;;20.67;71.39;99502.08;1595012;89;21054;-73
2022/06/13 04:11:03;;;;;;;5.83;5.35;;;;;;;20.82;70.72;99514.47;1599925;86;21126;-72
2022/06/13 04:14:09;;;;;;;7.15;5.17;;;;;;;20.88;69.72;99508.53;1634599;86;21951;-75
2022/06/13 04:17:02;;;;;;;7.15;5.97;;;;;;;20.67;70.71;99510.28;1632876;86;21388;-77
2022/06/13 04:19:55;;;;;;;8.38;5.47;;;;;;;20.57;71.54;99515.28;1610576;87;21127;-72
2022/06/13 04:22:44;;;;;;;5.90;5.43;;;;;;;20.60;71.23;99515.44;1629338;87;21087;-72
2022/06/13 04:25:52;;;;;;;6.37;5.42;;;;;;;20.64;71.24;99519.69;1636528;87;21071;-76
2022/06/13 04:28:42;;;;;;;6.72;6.17;;;;;;;20.69;71.14;99523.08;1615982;86;21272;-72
2022/06/13 04:31:10;;;;;;;8.83;6.25;;;;;;;20.81;70.55;99516.98;1633437;86;21947;-74
2022/06/13 04:33:48;;;;;;;8.40;6.75;;;;;;;20.81;70.55;99516.98;1589884;87;20995;-73
2022/06/13 04:36:16;;;;;;;7.65;6.95;;;;;;;20.82;70.69;99518.02;1611077;86;21127;-74
2022/06/13 04:38:47;;;;;;;6.95;6.20;;;;;;;20.87;70.54;99517.05;1662375;86;20995;-75
2022/06/13 04:41:13;;;;;;;6.75;6.12;;;;;;;20.95;70.29;99523.66;1656884;86;21574;-74
2022/06/13 04:43:44;;;;;;;6.47;5.97;;;;;;;20.90;70.65;99521.89;1635630;87;21886;-73
2022/06/13 04:46:14;;;;;;;6.53;5.97;;;;;;;20.85;70.82;99522.05;1655718;85;20994;-75
2022/06/13 04:48:43;;;;;;;5.72;5.20;;;;;;;20.91;70.70;99524.84;1657591;85;21519;-73
2022/06/13 04:51:21;;;;;;;6.33;5.28;;;;;;;20.96;70.65;99517.06;1616685;87;21030;-73
2022/06/13 04:54:01;;;;;;;5.65;5.08;;;;;;;20.96;70.65;99517.06;1636689;87;20979;-73
2022/06/13 04:56:29;;;;;;;7.78;7.08;;;;;;;21.03;70.25;99516.80;1635673;87;21047;-74
2022/06/13 04:58:58;;;;;;;7.28;6.58;;;;;;;21.13;70.01;99522.51;1635836;86;20995;-72
2022/06/13 05:01:35;;;;;;;6.70;6.20;;;;;;;21.21;69.68;99518.42;1638621;87;21529;-74
2022/06/13 05:04:05;;;;;;;6.47;5.85;;;;;;;21.33;69.44;99521.87;1663440;86;21039;-73
2022/06/13 05:06:50;;;;;;;6.50;5.90;;;;;;;21.44;69.35;99524.48;1663789;86;21094;-73
2022/06/13 05:09:31;;;;;;;6.50;5.90;;;;;;;21.55;68.68;99524.95;1663758;86;21216;-73
2022/06/13 05:12:21;;;;;;;5.65;4.97;;;;;;;21.65;68.29;99524.03;1632476;87;21595;-73
2022/06/13 05:15:05;;;;;;;7.58;6.72;;;;;;;21.75;67.88;99521.51;1659414;86;21636;-72
2022/06/13 05:18:10;;;;;;;8.93;7.03;;;;;;;21.90;66.71;99525.64;1644464;85;22269;-72
2022/06/13 05:21:02;;;;;;;6.40;5.80;;;;;;;21.92;66.55;99533.75;1636061;87;21537;-72
2022/06/13 05:23:47;;;;;;;7.20;6.58;;;;;;;21.87;67.25;99530.41;1610428;89;21755;-72
2022/06/13 05:26:14;;;;;;;6.37;5.87;;;;;;;21.86;67.62;99532.91;1592655;89;21101;-73
2022/06/13 05:28:41;;;;;;;6.72;5.87;;;;;;;21.95;67.13;99543.29;1636746;87;21066;-73
2022/06/13 05:31:18;;;;;;;5.62;5.12;;;;;;;21.97;66.72;99539.64;1640140;86;21513;-73
2022/06/13 05:33:47;;;;;;;5.87;5.25;;;;;;;21.99;66.34;99546.41;1663691;86;21071;-71
2022/06/13 05:36:17;;;;;;;9.65;5.50;;;;;;;22.03;65.10;99544.62;1662534;86;21131;-72
2022/06/13 05:38:53;;;;;;;6.33;5.80;;;;;;;22.05;64.63;99549.77;1635132;87;21014;-72
2022/06/13 05:41:20;;;;;;;6.35;5.85;;;;;;;22.12;64.72;99551.42;1588429;87;21043;-72
2022/06/13 05:43:51;;;;;;;7.10;6.25;;;;;;;22.20;64.69;99552.52;1633990;87;20971;-73
2022/06/13 05:46:32;;;;;;;9.28;8.35;;;;;;;22.28;64.82;99553.04;1635299;87;21520;-74
2022/06/13 05:48:59;;;;;;;6.47;5.97;;;;;;;22.35;64.87;99549.23;1611372;89;21279;-74
2022/06/13 05:51:26;;;;;;;6.00;5.50;;;;;;;22.44;64.07;99544.50;1641878;86;21019;-74
2022/06/13 05:53:55;;;;;;;7.72;6.37;;;;;;;22.51;63.29;99537.91;1637521;87;21091;-75
2022/06/13 05:56:24;;;;;;;7.05;6.45;;;;;;;22.55;63.13;99542.95;1636169;87;21042;-75
2022/06/13 05:58:51;;;;;;;5.80;5.30;;;;;;;22.56;63.50;99544.56;1624122;87;21050;-74
2022/06/13 06:01:18;;;;;;;6.20;5.70;;;;;;;22.57;63.58;99546.98;1660526;86;21217;-74
2022/06/13 06:03:46;;;;;;;9.00;5.92;;;;;;;22.64;62.84;99541.55;1663388;85;21496;-75
2022/06/13 06:06:24;;;;;;;8.18;6.10;;;;;;;22.69;62.94;99539.95;1663566;86;21508;-75
2022/06/13 06:08:54;;;;;;;7.25;5.62;;;;;;;22.71;63.05;99537.72;1663409;86;21123;-74
2022/06/13 06:11:21;;;;;;;6.05;5.55;;;;;;;22.75;62.39;99538.09;1625974;87;21039;-73
2022/06/13 06:13:49;;;;;;;7.35;6.65;;;;;;;22.81;62.28;99535.95;1663433;85;21176;-74
2022/06/13 06:16:21;;;;;;;9.33;6.22;;;;;;;22.89;61.79;99540.56;1663502;86;21685;-74
2022/06/13 06:18:47;;;;;;;7.63;5.80;;;;;;;22.94;61.01;99536.24;1652612;85;21016;-75
2022/06/13 06:21:14;;;;;;;6.30;5.70;;;;;;;23.00;60.47;99540.39;1632596;86;21070;-76
2022/06/13 06:23:41;;;;;;;7.30;6.53;;;;;;;23.01;60.82;99533.21;1641237;86;21084;-75
2022/06/13 06:26:08;;;;;;;13.95;5.60;;;;;;;23.08;60.62;99524.42;1635089;87;21783;-75
2022/06/13 06:28:34;;;;;;;5.60;5.20;;;;;;;23.17;58.87;99529.25;1611883;89;21517;-75
2022/06/13 06:31:04;;;;;;;5.40;5.03;;;;;;;23.22;57.83;99530.98;1635083;86;20979;-73
2022/06/13 06:33:32;;;;;;;5.62;5.22;;;;;;;23.19;57.96;99516.02;1639415;87;21068;-73
2022/06/13 06:35:59;;;;;;;5.30;4.90;;;;;;;23.23;58.09;99531.22;1663268;86;21592;-74
2022/06/13 06:38:26;;;;;;;6.30;5.47;;;;;;;23.24;58.08;99521.86;1637075;87;21223;-75
2022/06/13 06:40:53;;;;;;;10.85;4.37;;;;;;;23.21;58.36;99528.03;1637963;86;21294;-72
2022/06/13 06:43:20;;;;;;;6.03;4.50;;;;;;;23.22;58.21;99526.30;1663621;86;21016;-74
2022/06/13 06:45:47;;;;;;;10.28;5.80;;;;;;;23.29;58.07;99528.52;1609350;88;21083;-73
2022/06/13 06:48:22;;;;;;;5.17;4.78;;;;;;;23.34;56.85;99515.95;1600101;88;21117;-73
2022/06/13 06:50:49;;;;;;;4.20;3.90;;;;;;;23.40;56.85;99519.50;1635621;87;22006;-75
2022/06/13 06:53:18;;;;;;;5.83;4.90;;;;;;;23.49;56.68;99523.58;1609500;88;21094;-76
2022/06/13 07:01:17;;;;;;;6.37;5.12;;;;;;;23.69;55.94;99523.28;1600834;88;21115;-72
2022/06/13 07:03:44;;;;;;;6.83;4.10;;;;;;;23.77;54.26;99520.42;1622089;87;21957;-74
2022/06/13 07:06:11;;;;;;;7.78;7.17;;;;;;;23.84;54.08;99513.77;1619379;88;21068;-76
2022/06/13 07:08:38;;;;;;;12.85;5.40;;;;;;;23.91;54.03;99520.09;1619159;87;21117;-74
2022/06/13 07:14:04;;;;;;;4.40;4.08;;;;;;;23.98;54.30;99514.03;1599079;88;21114;-74
2022/06/13 07:16:32;;;;;;;6.53;4.28;;;;;;;23.98;53.68;99514.81;1637581;87;20947;-73
2022/06/13 07:19:00;;;;;;;8.70;6.95;;;;;;;24.09;54.15;99520.66;1598219;88;21104;-72
2022/06/13 07:21:28;;;;;;;13.53;12.10;;;;;;;24.13;53.65;99514.70;1613399;88;21085;-73
2022/06/13 07:23:54;;;;;;;6.40;5.85;;;;;;;24.15;53.35;99513.23;1599189;89;21539;-73
2022/06/13 07:26:21;;;;;;;4.10;3.80;;;;;;;24.19;52.84;99511.98;1599293;89;21034;-72
2022/06/13 07:28:48;;;;;;;4.03;3.65;;;;;;;24.29;52.16;99515.65;1599253;89;21219;-74
2022/06/13 07:31:23;;;;;;;5.58;3.75;;;;;;;24.38;51.64;99505.90;1591776;88;20994;-71
2022/06/13 07:33:50;;;;;;;3.67;3.37;;;;;;;24.43;50.81;99517.47;1599589;88;21110;-75
2022/06/13 07:38:44;;;;;;;3.75;3.45;;;;;;;24.56;49.12;99520.41;1886717;75;22575;-73
2022/06/13 07:41:15;;;;;;;5.37;3.35;;;;;;;24.55;49.06;99513.91;1855404;77;20925;-76
2022/06/13 07:43:43;;;;;;;5.05;4.33;;;;;;;24.66;49.07;99517.75;1822419;78;21222;-76
2022/06/13 07:46:12;;;;;;;4.08;3.50;;;;;;;24.72;49.26;99510.30;1821202;78;20974;-78
2022/06/13 07:48:39;;;;;;;6.80;3.02;;;;;;;24.84;48.68;99510.05;1819415;78;20955;-78
2022/06/13 07:51:06;;;;;;;2.42;2.30;;;;;;;24.92;48.03;99516.80;1819894;77;20978;-74
2022/06/13 07:53:34;;;;;;;2.75;2.55;;;;;;;24.94;46.11;99523.34;1846423;77;20860;-72
2022/06/13 07:56:02;;;;;;;3.17;2.98;;;;;;;24.96;45.49;99522.41;1835425;77;21118;-76
2022/06/13 07:58:35;;;;;;;2.85;2.65;;;;;;;24.99;46.55;99512.06;1791656;78;21505;-80
2022/06/13 08:01:03;;;;;;;3.42;3.08;;;;;;;25.11;47.13;99510.66;1822707;77;28227;-75
2022/06/13 08:03:32;;;;;;;5.95;2.92;;;;;;;25.20;47.18;99516.80;1822038;78;20996;-78
2022/06/13 08:05:59;;;;;;;3.25;2.95;;;;;;;25.28;46.43;99517.22;1825760;78;20944;-75
2022/06/13 08:08:26;;;;;;;3.17;2.77;;;;;;;25.36;46.07;99513.52;1829494;77;24378;-75
2022/06/13 08:10:54;;;;;;;3.70;3.40;;;;;;;25.36;45.86;99512.14;1767377;80;21042;-76
2022/06/13 08:13:21;;;;;;;5.25;2.30;;;;;;;25.33;45.90;99499.64;1764589;80;20899;-76
2022/06/13 08:15:48;;;;;;;6.42;5.80;;;;;;;25.37;46.67;99504.08;1766481;80;20997;-76
2022/06/13 08:18:15;;;;;;;4.05;3.75;;;;;;;25.47;46.64;99503.57;1788575;80;20891;-77
2022/06/13 08:20:42;;;;;;;6.67;3.50;;;;;;;25.63;46.60;99509.71;1776811;80;21061;-77
2022/06/13 08:23:11;;;;;;;3.92;3.05;;;;;;;25.72;45.96;99504.25;1755048;81;22199;-76
2022/06/13 08:25:38;;;;;;;3.55;3.35;;;;;;;25.74;45.87;99499.20;1753397;81;21089;-75
2022/06/13 08:28:06;;;;;;;3.10;2.85;;;;;;;25.79;45.67;99498.93;1756945;81;21025;-75
2022/06/13 08:30:45;;;;;;;4.12;3.20;;;;;;;25.81;45.48;99501.31;1761900;80;21062;-76
2022/06/13 08:33:12;;;;;;;3.75;3.42;;;;;;;25.83;44.77;99500.39;1753927;80;21623;-78
2022/06/13 08:35:40;;;;;;;4.65;3.17;;;;;;;25.87;44.19;99498.52;1758119;81;21103;-78
2022/06/13 08:38:07;;;;;;;2.37;2.25;;;;;;;25.90;43.78;99492.31;1754637;80;20960;-74
2022/06/13 08:41:08;;;;;;;4.65;2.90;;;;;;;25.94;43.44;99489.06;1759827;81;21003;-76
2022/06/13 08:44:08;;;;;;;5.50;4.40;;;;;;;26.01;43.72;99488.64;1753435;81;21042;-82
2022/06/13 08:47:18;;;;;;;4.37;3.52;;;;;;;26.12;43.87;99488.09;1760180;81;21251;-76
2022/06/13 08:49:59;;;;;;;7.60;3.70;;;;;;;26.19;43.48;99488.25;1769818;80;20949;-75
2022/06/13 08:52:31;;;;;;;3.45;3.15;;;;;;;26.17;43.49;99478.17;1744354;80;20939;-75
2022/06/13 08:55:30;;;;;;;4.95;2.52;;;;;;;26.18;43.42;99485.30;1753212;81;21021;-76
2022/06/13 08:58:09;;;;;;;6.22;3.20;;;;;;;26.14;43.33;99485.80;1757432;81;20994;-74
2022/06/13 09:00:39;;;;;;;3.80;2.95;;;;;;;26.05;43.59;99487.34;1756499;81;21554;-75
2022/06/13 09:03:13;;;;;;;3.30;2.95;;;;;;;26.06;43.59;99488.95;1729288;81;21029;-75
2022/06/13 09:05:51;;;;;;;3.77;3.58;;;;;;;26.03;43.67;99491.05;1756023;80;21484;-81
2022/06/13 09:09:00;;;;;;;2.85;2.65;;;;;;;25.95;44.19;99495.58;1764905;81;21004;-85
2022/06/13 09:11:50;;;;;;;3.60;2.72;;;;;;;25.90;44.48;99503.34;1752560;81;21050;-77
2022/06/13 09:14:25;;;;;;;2.98;2.67;;;;;;;25.90;44.19;99501.95;1769350;80;22487;-78
2022/06/13 09:17:25;;;;;;;3.55;2.40;;;;;;;25.90;44.22;99496.45;1768990;80;21036;-73
2022/06/13 09:20:10;;;;;;;4.05;3.70;;;;;;;25.88;44.40;99499.55;1728436;82;21002;-71
2022/06/13 09:22:55;;;;;;;3.22;2.95;;;;;;;25.88;44.20;99496.80;1742752;80;20982;-74
2022/06/13 09:26:08;;;;;;;3.67;3.33;;;;;;;25.89;44.34;99497.02;1756999;81;21040;-72
2022/06/13 09:28:50;;;;;;;5.75;3.02;;;;;;;25.88;44.42;99495.99;1737363;81;21765;-74
2022/06/13 09:31:42;;;;;;;4.25;3.45;;;;;;;25.93;44.31;99503.42;1754273;80;21009;-75
2022/06/13 09:34:13;;;;;;;3.58;2.95;;;;;;;25.89;43.96;99495.64;1728794;83;21018;-74
2022/06/13 09:36:46;;;;;;;6.85;3.22;;;;;;;25.83;44.31;99494.88;1743323;80;21102;-74
2022/06/13 09:39:12;;;;;;;8.98;4.12;;;;;;;25.87;44.41;99493.01;1766568;80;21030;-75
2022/06/13 09:42:17;;;;;;;3.55;3.25;;;;;;;25.93;44.53;99497.91;1760069;80;21109;-80
2022/06/13 09:45:17;;;;;;;3.27;2.90;;;;;;;25.97;44.72;99496.61;1758590;81;21492;-75
2022/06/13 09:48:01;;;;;;;3.42;2.70;;;;;;;25.97;43.77;99498.78;1753128;80;21516;-77
2022/06/13 09:50:49;;;;;;;9.20;4.08;;;;;;;26.00;43.78;99500.02;1753509;81;20991;-75
2022/06/13 09:53:26;;;;;;;5.17;3.58;;;;;;;26.02;43.90;99497.14;1756621;81;20972;-76
2022/06/13 09:56:23;;;;;;;4.17;3.83;;;;;;;26.09;43.45;99495.11;1751686;81;22159;-74
2022/06/13 09:59:02;;;;;;;3.98;3.10;;;;;;;26.19;43.24;99495.95;1754641;80;21001;-77
2022/06/13 10:01:58;;;;;;;3.50;3.20;;;;;;;26.29;43.27;99491.86;1758716;81;21030;-78
2022/06/13 10:05:08;;;;;;;3.40;2.72;;;;;;;26.40;43.12;99486.82;1755084;81;20989;-78
2022/06/13 10:07:53;;;;;;;3.12;2.83;;;;;;;26.53;42.84;99481.16;1743953;80;21591;-80
2022/06/13 10:10:45;;;;;;;3.00;2.80;;;;;;;26.67;42.15;99476.75;1763353;80;21077;-77
2022/06/13 10:13:24;;;;;;;3.30;2.67;;;;;;;26.77;41.85;99480.89;1760491;80;21038;-79
2022/06/13 10:16:08;;;;;;;3.20;3.00;;;;;;;26.83;41.73;99473.36;1758869;81;20939;-78
2022/06/13 10:19:16;;;;;;;4.65;2.92;;;;;;;26.99;41.13;99471.94;1751337;80;21085;-75
2022/06/13 10:21:48;;;;;;;5.92;2.77;;;;;;;27.16;39.41;99472.05;1758776;81;21488;-72
2022/06/13 10:24:51;;;;;;;2.85;2.33;;;;;;;27.27;39.03;99471.09;1741340;80;22142;-76
2022/06/13 10:27:49;;;;;;;2.47;2.27;;;;;;;27.46;39.15;99463.92;1749547;80;21036;-77
2022/06/13 10:30:35;;;;;;;3.55;2.92;;;;;;;27.64;38.81;99463.67;1756285;81;21516;-73
2022/06/13 10:33:10;;;;;;;6.00;3.70;;;;;;;27.79;38.20;99460.56;1757657;81;21539;-76
2022/06/13 10:35:45;;;;;;;4.08;3.22;;;;;;;27.81;37.78;99458.23;1756698;80;21069;-76
2022/06/13 10:38:39;;;;;;;;;;;;;;;27.81;37.53;99454.89;1760216;80;21137;-72
2022/06/13 10:41:07;;;;;;;2.92;2.72;;;;;;;27.85;37.96;99450.80;1764266;81;20117;-73
2022/06/13 10:43:34;;;;;;;5.62;2.58;;;;;;;27.91;37.25;99452.87;1764953;80;21076;-80
2022/06/13 10:46:01;;;;;;;3.98;2.60;;;;;;;27.88;37.44;99456.37;1714262;80;21042;-81
2022/06/13 10:48:43;;;;;;;2.72;2.52;;;;;;;27.95;37.16;99450.16;1771773;80;21086;-82
2022/06/13 10:51:11;;;;;;;5.67;4.15;;;;;;;28.05;36.82;99446.19;1761839;79;21062;-82
2022/06/13 10:53:53;;;;;;;2.27;2.15;;;;;;;28.08;36.82;99437.72;1765604;81;21031;-81
2022/06/13 10:56:42;;;;;;;2.60;2.40;;;;;;;28.19;36.93;99438.70;1766980;80;20967;-75
2022/06/13 10:59:28;;;;;;;2.85;2.60;;;;;;;28.22;36.94;99435.77;1768006;80;21652;-74
2022/06/13 11:02:20;;;;;;;4.95;3.35;;;;;;;28.26;36.56;99443.52;1729319;81;21130;-74
2022/06/13 11:05:08;;;;;;;3.93;2.87;;;;;;;28.16;36.64;99446.34;1732259;82;21742;-72
2022/06/13 11:07:45;;;;;;;2.90;2.70;;;;;;;28.11;36.82;99448.05;1729058;81;20940;-78
2022/06/13 11:10:32;;;;;;;2.37;2.27;;;;;;;28.08;36.81;99436.33;1727223;82;20952;-71
2022/06/13 11:13:03;;;;;;;2.35;2.22;;;;;;;28.02;36.30;99438.61;1728858;82;20959;-72
2022/06/13 11:24:17;;;;;;;10.20;2.80;;;;;;;27.57;37.08;99433.97;1730840;81;20978;-76
2022/06/13 11:29:35;;;;;;;2.85;2.22;;;;;;;27.50;37.72;99429.69;1745598;82;20923;-72
2022/06/13 11:32:05;;;;;;;2.80;2.60;;;;;;;27.47;38.16;99426.27;1745584;82;21124;-72
2022/06/13 11:34:38;;;;;;;3.47;3.12;;;;;;;27.48;38.06;99425.69;1719017;82;21503;-76
2022/06/13 11:37:22;;;;;;;3.83;2.72;;;;;;;27.48;37.45;99425.08;1732645;82;20975;-74
2022/06/13 11:39:51;;;;;;;2.60;2.40;;;;;;;27.44;37.51;99428.36;1729539;82;21087;-75
2022/06/13 11:42:26;;;;;;;2.80;2.60;;;;;;;27.39;37.46;99425.91;1725330;82;21091;-72
2022/06/13 11:44:57;;;;;;;2.83;2.60;;;;;;;27.39;37.18;99425.91;1732219;82;21103;-76
2022/06/13 11:47:25;;;;;;;2.22;2.02;;;;;;;27.35;37.38;99425.05;1733015;82;20990;-75
2022/06/13 11:49:56;;;;;;;2.62;2.42;;;;;;;27.36;37.55;99416.19;1732654;82;21659;-77
2022/06/13 11:55:27;;;;;;;9.05;3.87;;;;;;;27.43;38.30;99421.84;1729368;82;20980;-81
2022/06/13 11:57:59;;;;;;;6.75;4.30;;;;;;;27.47;38.32;99411.07;1724941;83;21225;-77
2022/06/13 12:00:38;;;;;;;3.58;2.90;;;;;;;27.46;38.77;99419.14;1724368;83;21501;-76
2022/06/13 12:03:11;;;;;;;4.50;3.27;;;;;;;27.49;38.19;99416.23;1707800;82;20994;-76
2022/06/13 12:05:39;;;;;;;3.47;3.02;;;;;;;27.44;38.30;99409.02;1710290;83;20939;-76
2022/06/13 12:08:19;;;;;;;2.98;2.72;;;;;;;27.46;38.68;99412.81;1730455;82;20978;-79
2022/06/13 12:11:04;;;;;;;6.08;3.47;;;;;;;27.48;38.71;99416.78;1718437;82;21603;-76
2022/06/13 12:13:38;;;;;;;8.53;4.00;;;;;;;27.48;38.38;99407.73;1727446;82;20972;-78
2022/06/13 12:16:35;;;;;;;4.83;4.40;;;;;;;27.52;38.27;99400.32;1730158;82;21645;-81
2022/06/13 12:19:32;;;;;;;3.60;3.22;;;;;;;27.56;38.23;99398.41;1732909;82;21078;-82
2022/06/13 12:22:22;;;;;;;2.95;2.75;;;;;;;27.56;37.98;99396.45;1733201;82;21546;-82
2022/06/13 12:25:30;;;;;;;8.33;3.17;;;;;;;27.53;38.13;99392.25;1728695;82;21231;-80
2022/06/13 12:28:16;;;;;;;3.52;2.42;;;;;;;27.44;38.32;99384.74;1724589;83;21052;-79
2022/06/13 12:31:12;;;;;;;4.60;2.75;;;;;;;27.39;38.33;99385.85;1731662;82;21029;-79
2022/06/13 12:34:05;;;;;;;2.95;2.75;;;;;;;27.43;38.03;99382.59;1730649;83;21081;-81
2022/06/13 12:36:54;;;;;;;3.05;2.65;;;;;;;27.43;37.86;99374.89;1730003;83;21316;-75
2022/06/13 12:39:50;;;;;;;5.70;2.58;;;;;;;27.49;37.75;99370.07;1724029;81;20996;-75
2022/06/13 12:42:37;;;;;;;4.87;2.25;;;;;;;27.57;36.97;99369.62;1716861;81;21045;-75
2022/06/13 12:45:28;;;;;;;3.70;3.00;;;;;;;27.53;36.77;99368.77;1662614;84;21035;-75
2022/06/13 12:48:43;;;;;;;9.45;2.70;;;;;;;27.46;37.36;99358.94;1723999;82;20975;-75
2022/06/13 12:51:50;;;;;;;4.28;3.90;;;;;;;27.50;37.34;99357.05;1716510;83;21022;-78
2022/06/13 12:54:53;;;;;;;3.70;3.30;;;;;;;27.61;36.95;99358.83;1730086;83;21263;-81